sensor_id;sensor_type;location;lat;lon;timestamp;P1;durP1;ratioP1;P2;durP2;ratioP2
55811;SDS011;41742;52.048;6.092;2022-12-07T00:02:01;3.38;;;2.25;;
55811;SDS011;41742;52.048;6.092;2022-12-07T00:04:26;3.72;;;2.20;;
55811;SDS011;41742;52.048;6.092;2022-12-07T00:06:52;5.00;;;1.75;;
55811;SDS011;41742;52.048;6.092;2022-12-07T00:09:18;2.83;;;1.90;;
55811;SDS011;41742;52.048;6.092;2022-12-07T00:11:44;7.53;;;2.60;;
55811;SDS011;41742;52.048;6.092;2022-12-07T00:14:14;4.53;;;1.48;;
55811;SDS011;41742;52.048;6.092;2022-12-07T00:16:41;2.90;;;1.95;;
55811;SDS011;41742;52.048;6.092;2022-12-07T00:19:08;2.78;;;1.75;;
55811;SDS011;41742;52.048;6.092;2022-12-07T00:21:35;2.03;;;1.60;;
55811;SDS011;41742;52.048;6.092;2022-12-07T00:24:02;3.83;;;1.75;;
55811;SDS011;41742;52.048;6.092;2022-12-07T00:26:30;4.30;;;1.50;;
55811;SDS011;41742;52.048;6.092;2022-12-07T00:29:01;7.90;;;1.80;;
55811;SDS011;41742;52.048;6.092;2022-12-07T00:31:32;5.80;;;2.45;;
55811;SDS011;41742;52.048;6.092;2022-12-07T00:34:00;5.72;;;1.65;;
55811;SDS011;41742;52.048;6.092;2022-12-07T00:36:27;2.78;;;1.73;;
55811;SDS011;41742;52.048;6.092;2022-12-07T00:38:57;6.40;;;2.28;;
55811;SDS011;41742;52.048;6.092;2022-12-07T00:41:24;3.78;;;1.80;;
55811;SDS011;41742;52.048;6.092;2022-12-07T00:43:51;5.35;;;1.73;;
55811;SDS011;41742;52.048;6.092;2022-12-07T00:46:17;2.83;;;1.85;;
55811;SDS011;41742;52.048;6.092;2022-12-07T00:48:45;3.47;;;1.88;;
55811;SDS011;41742;52.048;6.092;2022-12-07T00:51:12;5.18;;;2.40;;
55811;SDS011;41742;52.048;6.092;2022-12-07T00:53:39;2.83;;;1.98;;
55811;SDS011;41742;52.048;6.092;2022-12-07T00:56:24;6.00;;;1.50;;
55811;SDS011;41742;52.048;6.092;2022-12-07T00:58:57;5.55;;;2.03;;
55811;SDS011;41742;52.048;6.092;2022-12-07T01:01:25;3.35;;;1.75;;
55811;SDS011;41742;52.048;6.092;2022-12-07T01:03:53;6.65;;;2.28;;
55811;SDS011;41742;52.048;6.092;2022-12-07T01:06:19;5.03;;;1.70;;
55811;SDS011;41742;52.048;6.092;2022-12-07T01:08:46;2.55;;;1.33;;
55811;SDS011;41742;52.048;6.092;2022-12-07T01:11:14;3.58;;;1.42;;
55811;SDS011;41742;52.048;6.092;2022-12-07T01:13:42;6.03;;;1.80;;
55811;SDS011;41742;52.048;6.092;2022-12-07T01:16:09;2.40;;;1.80;;
55811;SDS011;41742;52.048;6.092;2022-12-07T01:18:37;3.35;;;1.75;;
55811;SDS011;41742;52.048;6.092;2022-12-07T01:23:36;4.32;;;1.70;;
55811;SDS011;41742;52.048;6.092;2022-12-07T01:26:04;5.47;;;1.73;;
55811;SDS011;41742;52.048;6.092;2022-12-07T01:28:32;4.95;;;1.42;;
55811;SDS011;41742;52.048;6.092;2022-12-07T01:33:37;5.90;;;2.15;;
55811;SDS011;41742;52.048;6.092;2022-12-07T01:36:04;5.60;;;2.45;;
55811;SDS011;41742;52.048;6.092;2022-12-07T01:38:32;2.95;;;1.65;;
55811;SDS011;41742;52.048;6.092;2022-12-07T01:40:58;3.00;;;1.45;;
55811;SDS011;41742;52.048;6.092;2022-12-07T01:43:25;3.92;;;1.85;;
55811;SDS011;41742;52.048;6.092;2022-12-07T01:45:54;14.02;;;1.98;;
55811;SDS011;41742;52.048;6.092;2022-12-07T01:48:22;1.88;;;1.70;;
55811;SDS011;41742;52.048;6.092;2022-12-07T01:50:55;3.90;;;1.90;;
55811;SDS011;41742;52.048;6.092;2022-12-07T01:53:25;5.70;;;2.03;;
55811;SDS011;41742;52.048;6.092;2022-12-07T01:55:54;3.47;;;1.75;;
55811;SDS011;41742;52.048;6.092;2022-12-07T01:58:21;6.10;;;1.95;;
55811;SDS011;41742;52.048;6.092;2022-12-07T02:00:48;5.05;;;1.95;;
55811;SDS011;41742;52.048;6.092;2022-12-07T02:03:19;3.75;;;1.75;;
55811;SDS011;41742;52.048;6.092;2022-12-07T02:06:01;3.45;;;2.00;;
55811;SDS011;41742;52.048;6.092;2022-12-07T02:08:27;6.07;;;2.13;;
55811;SDS011;41742;52.048;6.092;2022-12-07T02:10:53;2.40;;;1.80;;
55811;SDS011;41742;52.048;6.092;2022-12-07T02:13:27;2.58;;;1.50;;
55811;SDS011;41742;52.048;6.092;2022-12-07T02:26:46;3.60;;;1.80;;
55811;SDS011;41742;52.048;6.092;2022-12-07T02:29:22;2.97;;;1.83;;
55811;SDS011;41742;52.048;6.092;2022-12-07T02:34:57;6.00;;;2.03;;
55811;SDS011;41742;52.048;6.092;2022-12-07T02:40:24;9.90;;;1.92;;
55811;SDS011;41742;52.048;6.092;2022-12-07T02:43:02;3.95;;;2.00;;
55811;SDS011;41742;52.048;6.092;2022-12-07T02:45:34;4.10;;;1.40;;
55811;SDS011;41742;52.048;6.092;2022-12-07T02:48:03;4.00;;;1.38;;
55811;SDS011;41742;52.048;6.092;2022-12-07T02:50:31;3.20;;;1.65;;
55811;SDS011;41742;52.048;6.092;2022-12-07T02:52:57;4.03;;;1.58;;
55811;SDS011;41742;52.048;6.092;2022-12-07T02:55:25;5.60;;;2.13;;
55811;SDS011;41742;52.048;6.092;2022-12-07T02:58:07;4.13;;;1.90;;
55811;SDS011;41742;52.048;6.092;2022-12-07T03:04:07;3.95;;;2.00;;
55811;SDS011;41742;52.048;6.092;2022-12-07T03:06:46;2.05;;;1.35;;
55811;SDS011;41742;52.048;6.092;2022-12-07T03:09:23;5.68;;;1.55;;
55811;SDS011;41742;52.048;6.092;2022-12-07T03:12:06;3.25;;;1.23;;
55811;SDS011;41742;52.048;6.092;2022-12-07T03:14:41;2.08;;;1.10;;
55811;SDS011;41742;52.048;6.092;2022-12-07T03:17:15;3.10;;;1.92;;
55811;SDS011;41742;52.048;6.092;2022-12-07T03:19:46;1.42;;;1.05;;
55811;SDS011;41742;52.048;6.092;2022-12-07T03:22:14;3.22;;;1.13;;
55811;SDS011;41742;52.048;6.092;2022-12-07T03:24:42;5.60;;;1.98;;
55811;SDS011;41742;52.048;6.092;2022-12-07T03:27:16;1.83;;;1.17;;
55811;SDS011;41742;52.048;6.092;2022-12-07T03:29:50;8.68;;;1.73;;
55811;SDS011;41742;52.048;6.092;2022-12-07T03:34:56;4.55;;;1.17;;
55811;SDS011;41742;52.048;6.092;2022-12-07T03:37:52;3.28;;;1.42;;
55811;SDS011;41742;52.048;6.092;2022-12-07T03:40:21;2.15;;;1.20;;
55811;SDS011;41742;52.048;6.092;2022-12-07T03:42:53;4.28;;;1.67;;
55811;SDS011;41742;52.048;6.092;2022-12-07T03:45:21;4.47;;;1.25;;
55811;SDS011;41742;52.048;6.092;2022-12-07T03:48:02;4.10;;;1.67;;
55811;SDS011;41742;52.048;6.092;2022-12-07T03:50:43;7.45;;;1.50;;
55811;SDS011;41742;52.048;6.092;2022-12-07T03:53:24;2.58;;;1.17;;
55811;SDS011;41742;52.048;6.092;2022-12-07T03:56:05;2.70;;;1.02;;
55811;SDS011;41742;52.048;6.092;2022-12-07T03:58:33;2.95;;;1.23;;
55811;SDS011;41742;52.048;6.092;2022-12-07T04:00:59;1.42;;;1.05;;
55811;SDS011;41742;52.048;6.092;2022-12-07T04:03:25;9.98;;;1.60;;
55811;SDS011;41742;52.048;6.092;2022-12-07T04:05:50;6.15;;;1.08;;
55811;SDS011;41742;52.048;6.092;2022-12-07T04:08:16;10.32;;;1.63;;
55811;SDS011;41742;52.048;6.092;2022-12-07T04:10:42;5.15;;;1.25;;
55811;SDS011;41742;52.048;6.092;2022-12-07T04:13:08;6.28;;;1.52;;
55811;SDS011;41742;52.048;6.092;2022-12-07T04:15:33;2.60;;;1.20;;
55811;SDS011;41742;52.048;6.092;2022-12-07T04:17:59;3.63;;;1.70;;
55811;SDS011;41742;52.048;6.092;2022-12-07T04:20:24;7.82;;;1.08;;
55811;SDS011;41742;52.048;6.092;2022-12-07T04:22:50;1.52;;;0.82;;
55811;SDS011;41742;52.048;6.092;2022-12-07T04:25:16;4.03;;;1.92;;
55811;SDS011;41742;52.048;6.092;2022-12-07T04:27:41;8.43;;;1.40;;
55811;SDS011;41742;52.048;6.092;2022-12-07T04:30:07;5.57;;;1.75;;
55811;SDS011;41742;52.048;6.092;2022-12-07T04:32:33;3.42;;;1.20;;
55811;SDS011;41742;52.048;6.092;2022-12-07T04:34:59;6.00;;;1.25;;
55811;SDS011;41742;52.048;6.092;2022-12-07T04:37:24;3.88;;;1.10;;
55811;SDS011;41742;52.048;6.092;2022-12-07T04:39:50;2.45;;;1.35;;
55811;SDS011;41742;52.048;6.092;2022-12-07T04:42:15;5.95;;;2.10;;
55811;SDS011;41742;52.048;6.092;2022-12-07T04:44:41;4.40;;;1.13;;
55811;SDS011;41742;52.048;6.092;2022-12-07T04:47:07;4.65;;;1.33;;
55811;SDS011;41742;52.048;6.092;2022-12-07T04:49:32;4.75;;;1.50;;
55811;SDS011;41742;52.048;6.092;2022-12-07T04:51:58;4.95;;;1.33;;
55811;SDS011;41742;52.048;6.092;2022-12-07T04:54:24;4.95;;;1.25;;
55811;SDS011;41742;52.048;6.092;2022-12-07T04:56:49;3.88;;;1.45;;
55811;SDS011;41742;52.048;6.092;2022-12-07T04:59:15;2.65;;;1.27;;
55811;SDS011;41742;52.048;6.092;2022-12-07T05:01:42;6.32;;;1.85;;
55811;SDS011;41742;52.048;6.092;2022-12-07T05:04:08;6.75;;;0.88;;
55811;SDS011;41742;52.048;6.092;2022-12-07T05:06:34;4.00;;;1.45;;
55811;SDS011;41742;52.048;6.092;2022-12-07T05:09:01;4.63;;;1.60;;
55811;SDS011;41742;52.048;6.092;2022-12-07T05:11:27;8.48;;;1.85;;
55811;SDS011;41742;52.048;6.092;2022-12-07T05:14:12;3.22;;;1.15;;
55811;SDS011;41742;52.048;6.092;2022-12-07T05:16:43;1.02;;;0.93;;
55811;SDS011;41742;52.048;6.092;2022-12-07T05:19:09;5.97;;;1.30;;
55811;SDS011;41742;52.048;6.092;2022-12-07T05:21:36;13.73;;;2.08;;
55811;SDS011;41742;52.048;6.092;2022-12-07T05:24:02;2.38;;;1.20;;
55811;SDS011;41742;52.048;6.092;2022-12-07T05:26:28;2.63;;;1.00;;
55811;SDS011;41742;52.048;6.092;2022-12-07T05:28:54;1.77;;;0.90;;
55811;SDS011;41742;52.048;6.092;2022-12-07T05:31:21;2.70;;;1.00;;
55811;SDS011;41742;52.048;6.092;2022-12-07T05:33:48;2.60;;;1.23;;
55811;SDS011;41742;52.048;6.092;2022-12-07T05:36:13;1.48;;;0.93;;
55811;SDS011;41742;52.048;6.092;2022-12-07T05:38:39;4.28;;;1.30;;
55811;SDS011;41742;52.048;6.092;2022-12-07T05:41:06;4.95;;;1.05;;
55811;SDS011;41742;52.048;6.092;2022-12-07T05:43:53;1.33;;;1.23;;
55811;SDS011;41742;52.048;6.092;2022-12-07T05:46:18;3.25;;;1.17;;
55811;SDS011;41742;52.048;6.092;2022-12-07T05:48:44;4.75;;;1.15;;
55811;SDS011;41742;52.048;6.092;2022-12-07T05:51:09;4.95;;;1.25;;
55811;SDS011;41742;52.048;6.092;2022-12-07T05:53:35;4.25;;;1.25;;
55811;SDS011;41742;52.048;6.092;2022-12-07T05:56:00;5.38;;;0.90;;
55811;SDS011;41742;52.048;6.092;2022-12-07T05:58:26;5.60;;;1.25;;
55811;SDS011;41742;52.048;6.092;2022-12-07T06:01:10;5.45;;;1.00;;
55811;SDS011;41742;52.048;6.092;2022-12-07T06:03:36;6.13;;;1.73;;
55811;SDS011;41742;52.048;6.092;2022-12-07T06:06:01;4.80;;;0.90;;
55811;SDS011;41742;52.048;6.092;2022-12-07T06:08:27;4.63;;;1.45;;
55811;SDS011;41742;52.048;6.092;2022-12-07T06:10:52;2.50;;;0.98;;
55811;SDS011;41742;52.048;6.092;2022-12-07T06:13:38;3.83;;;0.98;;
55811;SDS011;41742;52.048;6.092;2022-12-07T06:16:04;6.63;;;1.40;;
55811;SDS011;41742;52.048;6.092;2022-12-07T06:18:30;3.70;;;0.63;;
55811;SDS011;41742;52.048;6.092;2022-12-07T06:20:55;4.22;;;1.10;;
55811;SDS011;41742;52.048;6.092;2022-12-07T06:23:21;2.83;;;1.00;;
55811;SDS011;41742;52.048;6.092;2022-12-07T06:25:46;8.73;;;1.10;;
55811;SDS011;41742;52.048;6.092;2022-12-07T06:28:12;3.72;;;1.25;;
55811;SDS011;41742;52.048;6.092;2022-12-07T06:30:38;3.40;;;0.90;;
55811;SDS011;41742;52.048;6.092;2022-12-07T06:33:03;2.83;;;1.10;;
55811;SDS011;41742;52.048;6.092;2022-12-07T06:35:29;2.40;;;0.90;;
55811;SDS011;41742;52.048;6.092;2022-12-07T06:37:54;2.63;;;0.63;;
55811;SDS011;41742;52.048;6.092;2022-12-07T06:40:20;3.05;;;0.80;;
55811;SDS011;41742;52.048;6.092;2022-12-07T06:42:45;4.22;;;1.25;;
55811;SDS011;41742;52.048;6.092;2022-12-07T06:45:11;9.88;;;1.42;;
55811;SDS011;41742;52.048;6.092;2022-12-07T06:47:37;6.78;;;1.50;;
55811;SDS011;41742;52.048;6.092;2022-12-07T06:50:02;3.00;;;1.13;;
55811;SDS011;41742;52.048;6.092;2022-12-07T06:52:30;4.40;;;1.17;;
55811;SDS011;41742;52.048;6.092;2022-12-07T06:54:55;3.72;;;0.98;;
55811;SDS011;41742;52.048;6.092;2022-12-07T06:57:21;2.33;;;0.85;;
55811;SDS011;41742;52.048;6.092;2022-12-07T06:59:47;1.48;;;0.85;;
55811;SDS011;41742;52.048;6.092;2022-12-07T07:02:13;9.10;;;1.40;;
55811;SDS011;41742;52.048;6.092;2022-12-07T07:04:38;4.38;;;1.40;;
55811;SDS011;41742;52.048;6.092;2022-12-07T07:07:04;7.35;;;1.10;;
55811;SDS011;41742;52.048;6.092;2022-12-07T07:09:30;4.07;;;1.23;;
55811;SDS011;41742;52.048;6.092;2022-12-07T07:11:56;2.00;;;1.00;;
55811;SDS011;41742;52.048;6.092;2022-12-07T07:14:21;8.20;;;1.00;;
55811;SDS011;41742;52.048;6.092;2022-12-07T07:16:47;1.25;;;0.68;;
55811;SDS011;41742;52.048;6.092;2022-12-07T07:19:12;2.60;;;1.42;;
55811;SDS011;41742;52.048;6.092;2022-12-07T07:21:38;3.75;;;0.80;;
55811;SDS011;41742;52.048;6.092;2022-12-07T07:24:04;3.13;;;1.10;;
55811;SDS011;41742;52.048;6.092;2022-12-07T07:26:30;7.13;;;1.42;;
55811;SDS011;41742;52.048;6.092;2022-12-07T07:28:55;3.20;;;1.48;;
55811;SDS011;41742;52.048;6.092;2022-12-07T07:31:21;3.35;;;1.02;;
55811;SDS011;41742;52.048;6.092;2022-12-07T07:33:46;2.50;;;0.65;;
55811;SDS011;41742;52.048;6.092;2022-12-07T07:36:12;3.08;;;0.80;;
55811;SDS011;41742;52.048;6.092;2022-12-07T07:38:38;4.95;;;0.88;;
55811;SDS011;41742;52.048;6.092;2022-12-07T07:41:04;1.60;;;1.10;;
55811;SDS011;41742;52.048;6.092;2022-12-07T07:43:29;3.25;;;1.50;;
55811;SDS011;41742;52.048;6.092;2022-12-07T07:45:55;4.47;;;1.48;;
55811;SDS011;41742;52.048;6.092;2022-12-07T07:48:22;2.70;;;0.93;;
55811;SDS011;41742;52.048;6.092;2022-12-07T07:50:50;6.07;;;0.95;;
55811;SDS011;41742;52.048;6.092;2022-12-07T07:53:16;2.35;;;0.90;;
55811;SDS011;41742;52.048;6.092;2022-12-07T07:55:41;2.97;;;1.08;;
55811;SDS011;41742;52.048;6.092;2022-12-07T07:58:16;3.55;;;0.98;;
55811;SDS011;41742;52.048;6.092;2022-12-07T08:00:41;1.77;;;0.90;;
55811;SDS011;41742;52.048;6.092;2022-12-07T08:03:07;4.07;;;1.17;;
55811;SDS011;41742;52.048;6.092;2022-12-07T08:05:33;1.77;;;0.77;;
55811;SDS011;41742;52.048;6.092;2022-12-07T08:07:58;4.72;;;0.82;;
55811;SDS011;41742;52.048;6.092;2022-12-07T08:10:24;3.90;;;0.88;;
55811;SDS011;41742;52.048;6.092;2022-12-07T08:12:50;6.32;;;1.00;;
55811;SDS011;41742;52.048;6.092;2022-12-07T08:15:35;4.13;;;0.90;;
55811;SDS011;41742;52.048;6.092;2022-12-07T08:18:02;4.60;;;1.10;;
55811;SDS011;41742;52.048;6.092;2022-12-07T08:20:29;6.72;;;0.98;;
55811;SDS011;41742;52.048;6.092;2022-12-07T08:22:56;2.95;;;1.05;;
55811;SDS011;41742;52.048;6.092;2022-12-07T08:25:22;2.47;;;0.75;;
55811;SDS011;41742;52.048;6.092;2022-12-07T08:27:48;9.15;;;1.15;;
55811;SDS011;41742;52.048;6.092;2022-12-07T08:30:14;1.77;;;0.82;;
55811;SDS011;41742;52.048;6.092;2022-12-07T08:32:40;2.40;;;1.25;;
55811;SDS011;41742;52.048;6.092;2022-12-07T08:35:06;3.13;;;0.77;;
55811;SDS011;41742;52.048;6.092;2022-12-07T08:37:33;1.40;;;0.70;;
55811;SDS011;41742;52.048;6.092;2022-12-07T08:39:58;3.70;;;0.77;;
55811;SDS011;41742;52.048;6.092;2022-12-07T08:42:24;8.82;;;1.35;;
55811;SDS011;41742;52.048;6.092;2022-12-07T08:44:54;4.57;;;1.15;;
55811;SDS011;41742;52.048;6.092;2022-12-07T08:47:23;3.03;;;0.75;;
55811;SDS011;41742;52.048;6.092;2022-12-07T08:49:50;3.50;;;0.95;;
55811;SDS011;41742;52.048;6.092;2022-12-07T08:52:18;4.45;;;0.80;;
55811;SDS011;41742;52.048;6.092;2022-12-07T08:54:44;4.43;;;0.75;;
55811;SDS011;41742;52.048;6.092;2022-12-07T08:57:10;1.88;;;0.85;;
55811;SDS011;41742;52.048;6.092;2022-12-07T08:59:36;2.20;;;0.98;;
55811;SDS011;41742;52.048;6.092;2022-12-07T09:02:03;4.45;;;1.27;;
55811;SDS011;41742;52.048;6.092;2022-12-07T09:04:29;1.73;;;0.50;;
55811;SDS011;41742;52.048;6.092;2022-12-07T09:06:55;5.57;;;1.20;;
55811;SDS011;41742;52.048;6.092;2022-12-07T09:09:21;4.55;;;1.27;;
55811;SDS011;41742;52.048;6.092;2022-12-07T09:11:47;1.27;;;0.60;;
55811;SDS011;41742;52.048;6.092;2022-12-07T09:14:12;7.07;;;1.52;;
55811;SDS011;41742;52.048;6.092;2022-12-07T09:16:38;2.80;;;1.17;;
55811;SDS011;41742;52.048;6.092;2022-12-07T09:19:04;1.38;;;0.60;;
55811;SDS011;41742;52.048;6.092;2022-12-07T09:21:30;2.50;;;0.52;;
55811;SDS011;41742;52.048;6.092;2022-12-07T09:23:56;7.90;;;1.38;;
55811;SDS011;41742;52.048;6.092;2022-12-07T09:26:21;4.88;;;0.82;;
55811;SDS011;41742;52.048;6.092;2022-12-07T09:28:47;2.50;;;0.85;;
55811;SDS011;41742;52.048;6.092;2022-12-07T09:31:13;4.57;;;1.15;;
55811;SDS011;41742;52.048;6.092;2022-12-07T09:33:38;0.85;;;0.70;;
55811;SDS011;41742;52.048;6.092;2022-12-07T09:36:04;3.40;;;0.77;;
55811;SDS011;41742;52.048;6.092;2022-12-07T09:38:30;2.58;;;0.77;;
55811;SDS011;41742;52.048;6.092;2022-12-07T09:40:57;4.68;;;1.15;;
55811;SDS011;41742;52.048;6.092;2022-12-07T09:43:30;2.92;;;0.93;;
55811;SDS011;41742;52.048;6.092;2022-12-07T09:45:55;7.35;;;1.00;;
55811;SDS011;41742;52.048;6.092;2022-12-07T09:51:01;2.50;;;0.82;;
55811;SDS011;41742;52.048;6.092;2022-12-07T09:53:36;1.15;;;0.73;;
55811;SDS011;41742;52.048;6.092;2022-12-07T09:56:03;3.72;;;0.68;;
55811;SDS011;41742;52.048;6.092;2022-12-07T09:58:29;2.15;;;0.70;;
55811;SDS011;41742;52.048;6.092;2022-12-07T10:00:59;1.52;;;0.40;;
55811;SDS011;41742;52.048;6.092;2022-12-07T10:03:35;2.90;;;0.88;;
55811;SDS011;41742;52.048;6.092;2022-12-07T10:06:03;1.00;;;0.55;;
55811;SDS011;41742;52.048;6.092;2022-12-07T10:08:30;3.60;;;0.90;;
55811;SDS011;41742;52.048;6.092;2022-12-07T10:10:56;1.58;;;0.55;;
55811;SDS011;41742;52.048;6.092;2022-12-07T10:13:33;4.03;;;0.93;;
55811;SDS011;41742;52.048;6.092;2022-12-07T10:16:03;6.45;;;0.63;;
55811;SDS011;41742;52.048;6.092;2022-12-07T10:23:32;2.00;;;0.47;;
55811;SDS011;41742;52.048;6.092;2022-12-07T10:25:59;3.78;;;1.13;;
55811;SDS011;41742;52.048;6.092;2022-12-07T10:31:15;2.30;;;0.85;;
55811;SDS011;41742;52.048;6.092;2022-12-07T10:36:23;2.42;;;0.60;;
55811;SDS011;41742;52.048;6.092;2022-12-07T10:39:00;8.27;;;1.02;;
55811;SDS011;41742;52.048;6.092;2022-12-07T10:41:28;4.43;;;0.82;;
55811;SDS011;41742;52.048;6.092;2022-12-07T10:43:55;2.72;;;0.80;;
55811;SDS011;41742;52.048;6.092;2022-12-07T10:49:18;2.72;;;1.05;;
55811;SDS011;41742;52.048;6.092;2022-12-07T10:58:05;4.70;;;0.85;;
55811;SDS011;41742;52.048;6.092;2022-12-07T11:00:18;6.53;;;0.80;;
55811;SDS011;41742;52.048;6.092;2022-12-07T11:13:26;9.27;;;1.05;;
55811;SDS011;41742;52.048;6.092;2022-12-07T11:18:56;5.00;;;1.00;;
55811;SDS011;41742;52.048;6.092;2022-12-07T11:21:54;2.38;;;0.90;;
55811;SDS011;41742;52.048;6.092;2022-12-07T11:30:18;2.83;;;0.90;;
55811;SDS011;41742;52.048;6.092;2022-12-07T11:38:10;8.68;;;1.10;;
55811;SDS011;41742;52.048;6.092;2022-12-07T11:40:39;2.63;;;0.77;;
55811;SDS011;41742;52.048;6.092;2022-12-07T11:43:18;5.30;;;1.33;;
55811;SDS011;41742;52.048;6.092;2022-12-07T11:46:27;2.17;;;0.60;;
55811;SDS011;41742;52.048;6.092;2022-12-07T11:48:54;3.88;;;0.88;;
55811;SDS011;41742;52.048;6.092;2022-12-07T11:51:29;2.67;;;0.73;;
55811;SDS011;41742;52.048;6.092;2022-12-07T11:54:02;3.67;;;1.08;;
55811;SDS011;41742;52.048;6.092;2022-12-07T11:56:36;3.22;;;0.75;;
55811;SDS011;41742;52.048;6.092;2022-12-07T12:01:56;15.75;;;1.17;;
55811;SDS011;41742;52.048;6.092;2022-12-07T12:06:59;8.73;;;1.10;;
55811;SDS011;41742;52.048;6.092;2022-12-07T12:09:32;0.77;;;0.40;;
55811;SDS011;41742;52.048;6.092;2022-12-07T12:20:40;4.78;;;1.02;;
55811;SDS011;41742;52.048;6.092;2022-12-07T12:23:55;2.63;;;0.73;;
55811;SDS011;41742;52.048;6.092;2022-12-07T12:28:52;2.83;;;0.90;;
55811;SDS011;41742;52.048;6.092;2022-12-07T12:33:57;1.80;;;0.70;;
55811;SDS011;41742;52.048;6.092;2022-12-07T12:39:09;5.45;;;1.25;;
55811;SDS011;41742;52.048;6.092;2022-12-07T12:51:54;5.22;;;1.00;;
55811;SDS011;41742;52.048;6.092;2022-12-07T12:54:26;4.15;;;0.90;;
55811;SDS011;41742;52.048;6.092;2022-12-07T12:57:12;3.13;;;0.82;;
55811;SDS011;41742;52.048;6.092;2022-12-07T13:00:00;3.90;;;0.93;;
55811;SDS011;41742;52.048;6.092;2022-12-07T13:02:32;3.35;;;0.98;;
55811;SDS011;41742;52.048;6.092;2022-12-07T13:20:56;0.80;;;0.60;;
55811;SDS011;41742;52.048;6.092;2022-12-07T13:23:38;2.45;;;1.00;;
55811;SDS011;41742;52.048;6.092;2022-12-07T13:31:35;5.22;;;0.95;;
55811;SDS011;41742;52.048;6.092;2022-12-07T13:34:04;3.60;;;1.20;;
55811;SDS011;41742;52.048;6.092;2022-12-07T13:36:50;5.65;;;0.73;;
55811;SDS011;41742;52.048;6.092;2022-12-07T13:39:18;3.17;;;0.73;;
55811;SDS011;41742;52.048;6.092;2022-12-07T13:41:49;4.63;;;0.70;;
55811;SDS011;41742;52.048;6.092;2022-12-07T13:44:17;2.45;;;0.90;;
55811;SDS011;41742;52.048;6.092;2022-12-07T13:47:00;9.60;;;1.73;;
55811;SDS011;41742;52.048;6.092;2022-12-07T13:49:49;3.15;;;0.52;;
55811;SDS011;41742;52.048;6.092;2022-12-07T13:52:21;7.95;;;0.95;;
55811;SDS011;41742;52.048;6.092;2022-12-07T13:57:38;5.63;;;1.00;;
55811;SDS011;41742;52.048;6.092;2022-12-07T14:00:05;3.28;;;0.55;;
55811;SDS011;41742;52.048;6.092;2022-12-07T14:02:53;1.98;;;0.60;;
55811;SDS011;41742;52.048;6.092;2022-12-07T14:05:46;1.75;;;0.55;;
55811;SDS011;41742;52.048;6.092;2022-12-07T14:08:29;2.08;;;0.52;;
55811;SDS011;41742;52.048;6.092;2022-12-07T14:10:56;3.83;;;0.80;;
55811;SDS011;41742;52.048;6.092;2022-12-07T14:15:59;1.60;;;0.60;;
55811;SDS011;41742;52.048;6.092;2022-12-07T14:18:29;1.40;;;0.68;;
55811;SDS011;41742;52.048;6.092;2022-12-07T14:21:05;4.53;;;0.55;;
55811;SDS011;41742;52.048;6.092;2022-12-07T14:23:34;6.88;;;0.82;;
55811;SDS011;41742;52.048;6.092;2022-12-07T14:31:11;1.58;;;0.40;;
55811;SDS011;41742;52.048;6.092;2022-12-07T14:33:38;1.95;;;0.85;;
55811;SDS011;41742;52.048;6.092;2022-12-07T14:36:05;2.88;;;0.55;;
55811;SDS011;41742;52.048;6.092;2022-12-07T14:38:31;2.42;;;0.77;;
55811;SDS011;41742;52.048;6.092;2022-12-07T14:40:56;1.55;;;0.40;;
55811;SDS011;41742;52.048;6.092;2022-12-07T14:43:41;0.20;;;0.15;;
55811;SDS011;41742;52.048;6.092;2022-12-07T14:46:07;1.55;;;0.50;;
55811;SDS011;41742;52.048;6.092;2022-12-07T14:48:34;3.58;;;0.63;;
55811;SDS011;41742;52.048;6.092;2022-12-07T14:50:59;0.35;;;0.17;;
55811;SDS011;41742;52.048;6.092;2022-12-07T14:53:29;1.63;;;0.73;;
55811;SDS011;41742;52.048;6.092;2022-12-07T14:55:58;4.05;;;0.65;;
55811;SDS011;41742;52.048;6.092;2022-12-07T14:58:24;2.20;;;0.70;;
55811;SDS011;41742;52.048;6.092;2022-12-07T15:00:50;3.67;;;0.22;;
55811;SDS011;41742;52.048;6.092;2022-12-07T15:03:15;3.03;;;0.40;;
55811;SDS011;41742;52.048;6.092;2022-12-07T15:05:41;0.30;;;0.30;;
55811;SDS011;41742;52.048;6.092;2022-12-07T15:08:08;1.95;;;0.40;;
55811;SDS011;41742;52.048;6.092;2022-12-07T15:10:35;1.67;;;0.70;;
55811;SDS011;41742;52.048;6.092;2022-12-07T15:13:03;2.88;;;0.82;;
55811;SDS011;41742;52.048;6.092;2022-12-07T15:15:49;1.65;;;0.70;;
55811;SDS011;41742;52.048;6.092;2022-12-07T15:18:16;3.30;;;0.90;;
55811;SDS011;41742;52.048;6.092;2022-12-07T15:20:43;2.65;;;0.32;;
55811;SDS011;41742;52.048;6.092;2022-12-07T15:23:10;2.58;;;0.57;;
55811;SDS011;41742;52.048;6.092;2022-12-07T15:25:36;7.32;;;0.75;;
55811;SDS011;41742;52.048;6.092;2022-12-07T15:28:05;0.98;;;0.40;;
55811;SDS011;41742;52.048;6.092;2022-12-07T15:30:31;3.13;;;1.00;;
55811;SDS011;41742;52.048;6.092;2022-12-07T15:32:56;2.50;;;0.43;;
55811;SDS011;41742;52.048;6.092;2022-12-07T15:35:22;1.08;;;0.45;;
55811;SDS011;41742;52.048;6.092;2022-12-07T15:37:48;1.95;;;0.70;;
55811;SDS011;41742;52.048;6.092;2022-12-07T15:40:13;0.73;;;0.43;;
55811;SDS011;41742;52.048;6.092;2022-12-07T15:42:39;2.60;;;0.60;;
55811;SDS011;41742;52.048;6.092;2022-12-07T15:45:06;2.67;;;0.60;;
55811;SDS011;41742;52.048;6.092;2022-12-07T15:47:37;5.43;;;0.50;;
55811;SDS011;41742;52.048;6.092;2022-12-07T15:50:05;1.60;;;0.55;;
55811;SDS011;41742;52.048;6.092;2022-12-07T15:52:32;1.23;;;0.45;;
55811;SDS011;41742;52.048;6.092;2022-12-07T15:54:58;1.70;;;0.73;;
55811;SDS011;41742;52.048;6.092;2022-12-07T15:57:28;0.80;;;0.45;;
55811;SDS011;41742;52.048;6.092;2022-12-07T15:59:58;0.40;;;0.30;;
55811;SDS011;41742;52.048;6.092;2022-12-07T16:02:24;1.85;;;0.50;;
55811;SDS011;41742;52.048;6.092;2022-12-07T16:04:50;1.38;;;0.60;;
55811;SDS011;41742;52.048;6.092;2022-12-07T16:07:17;1.60;;;0.57;;
55811;SDS011;41742;52.048;6.092;2022-12-07T16:09:43;4.47;;;0.93;;
55811;SDS011;41742;52.048;6.092;2022-12-07T16:12:10;1.77;;;0.63;;
55811;SDS011;41742;52.048;6.092;2022-12-07T16:14:37;1.65;;;0.40;;
55811;SDS011;41742;52.048;6.092;2022-12-07T16:17:04;2.67;;;0.68;;
55811;SDS011;41742;52.048;6.092;2022-12-07T16:19:31;3.28;;;0.80;;
55811;SDS011;41742;52.048;6.092;2022-12-07T16:21:57;0.82;;;0.47;;
55811;SDS011;41742;52.048;6.092;2022-12-07T16:24:23;4.30;;;1.00;;
55811;SDS011;41742;52.048;6.092;2022-12-07T16:26:49;4.03;;;0.82;;
55811;SDS011;41742;52.048;6.092;2022-12-07T16:29:15;3.03;;;0.90;;
55811;SDS011;41742;52.048;6.092;2022-12-07T16:31:42;2.95;;;0.60;;
55811;SDS011;41742;52.048;6.092;2022-12-07T16:34:08;1.75;;;0.40;;
55811;SDS011;41742;52.048;6.092;2022-12-07T16:36:34;1.85;;;0.43;;
55811;SDS011;41742;52.048;6.092;2022-12-07T16:39:00;1.95;;;0.45;;
55811;SDS011;41742;52.048;6.092;2022-12-07T16:41:26;4.90;;;0.40;;
55811;SDS011;41742;52.048;6.092;2022-12-07T16:43:52;1.58;;;0.43;;
55811;SDS011;41742;52.048;6.092;2022-12-07T16:46:17;0.60;;;0.40;;
55811;SDS011;41742;52.048;6.092;2022-12-07T16:48:43;1.27;;;0.50;;
55811;SDS011;41742;52.048;6.092;2022-12-07T16:51:10;2.08;;;0.40;;
55811;SDS011;41742;52.048;6.092;2022-12-07T16:53:38;1.63;;;0.28;;
55811;SDS011;41742;52.048;6.092;2022-12-07T16:56:11;0.88;;;0.25;;
55811;SDS011;41742;52.048;6.092;2022-12-07T17:01:21;2.25;;;0.40;;
55811;SDS011;41742;52.048;6.092;2022-12-07T17:03:48;3.08;;;0.47;;
55811;SDS011;41742;52.048;6.092;2022-12-07T17:06:23;1.33;;;0.40;;
55811;SDS011;41742;52.048;6.092;2022-12-07T17:08:50;1.60;;;0.60;;
55811;SDS011;41742;52.048;6.092;2022-12-07T17:11:27;1.15;;;0.35;;
55811;SDS011;41742;52.048;6.092;2022-12-07T17:13:56;1.33;;;0.50;;
55811;SDS011;41742;52.048;6.092;2022-12-07T17:16:40;5.18;;;0.57;;
55811;SDS011;41742;52.048;6.092;2022-12-07T17:19:11;1.52;;;0.38;;
55811;SDS011;41742;52.048;6.092;2022-12-07T17:21:38;2.03;;;0.45;;